createdAt,value
2023-01-26T00:00:24.762Z,101078.25
2023-01-26T00:03:13.528Z,101076.22
2023-01-26T00:06:05.245Z,101072.91
2023-01-26T00:08:55.427Z,101073.28
2023-01-26T00:11:44.170Z,101074.94
2023-01-26T00:14:49.785Z,101069.25
2023-01-26T00:17:39.928Z,101071.63
2023-01-26T00:20:28.647Z,101063.91
2023-01-26T00:23:17.288Z,101066.78
2023-01-26T00:26:08.253Z,101073.28
2023-01-26T00:28:56.976Z,101064.28
2023-01-26T00:31:45.715Z,101069.09
2023-01-26T00:34:35.706Z,101065.78
2023-01-26T00:37:24.519Z,101059.28
2023-01-26T00:40:13.712Z,101061.59
2023-01-26T00:43:02.477Z,101051.97
2023-01-26T00:45:51.123Z,101050.31
2023-01-26T00:48:39.761Z,101045.31
2023-01-26T00:51:29.862Z,101046.84
2023-01-26T00:54:18.554Z,101044.19
2023-01-26T00:57:07.433Z,101050.97
2023-01-26T00:59:56.187Z,101046.97
2023-01-26T01:02:44.949Z,101036.97
2023-01-26T01:05:34.730Z,101043.31
2023-01-26T01:08:24.721Z,101042.59
2023-01-26T01:11:13.776Z,101036.88
2023-01-26T01:14:02.399Z,101034.28
2023-01-26T01:16:53.634Z,101034.66
2023-01-26T01:19:42.429Z,101032.31
2023-01-26T01:22:31.122Z,101036.34
2023-01-26T01:25:21.135Z,101038.66
2023-01-26T01:28:09.792Z,101036.69
2023-01-26T01:30:58.991Z,101034.69
2023-01-26T01:33:47.701Z,101035.81
2023-01-26T01:36:36.368Z,101036.31
2023-01-26T01:39:24.991Z,101035.94
2023-01-26T01:42:14.916Z,101027.31
2023-01-26T01:45:41.655Z,101029.44
2023-01-26T01:48:32.937Z,101023.28
2023-01-26T01:51:27.142Z,101013.44
2023-01-26T01:54:18.537Z,101008.28
2023-01-26T01:57:15.395Z,101008.13
2023-01-26T02:00:08.541Z,100996.91
2023-01-26T02:03:14.908Z,100997.63
2023-01-26T02:06:06.707Z,100996.25
2023-01-26T02:08:56.265Z,100995.25
2023-01-26T02:14:51.048Z,100988.91
2023-01-26T02:17:41.589Z,100988.56
2023-01-26T02:20:36.660Z,100974.94
2023-01-26T02:23:43.990Z,100974.94
2023-01-26T02:26:35.378Z,100965.91
2023-01-26T02:29:24.118Z,100967.94
2023-01-26T02:32:12.707Z,100965.47
2023-01-26T02:35:01.376Z,100949.00
2023-01-26T02:38:38.388Z,100947.81
2023-01-26T02:41:45.677Z,100943.81
2023-01-26T02:44:35.800Z,100940.34
2023-01-26T02:47:24.381Z,100935.19
2023-01-26T02:50:12.633Z,100929.44
2023-01-26T02:53:01.520Z,100924.91
2023-01-26T02:55:50.547Z,100924.28
2023-01-26T02:58:39.192Z,100928.44
2023-01-26T03:01:31.019Z,100923.63
2023-01-26T03:04:21.101Z,100927.31
2023-01-26T03:07:09.798Z,100927.31
2023-01-26T03:09:59.028Z,100931.47
2023-01-26T03:12:48.159Z,100925.75
2023-01-26T03:15:43.688Z,100925.16
2023-01-26T03:18:52.894Z,100924.34
2023-01-26T03:21:59.019Z,100919.31
2023-01-26T03:25:05.585Z,100919.69
2023-01-26T03:27:54.199Z,100918.19
2023-01-26T03:30:42.914Z,100918.34
2023-01-26T03:33:31.632Z,100919.06
2023-01-26T03:36:21.844Z,100916.41
2023-01-26T03:39:30.559Z,100911.44
2023-01-26T03:42:36.940Z,100914.41
2023-01-26T03:45:45.479Z,100909.28
2023-01-26T03:48:51.865Z,100908.91
2023-01-26T03:51:59.580Z,100913.69
2023-01-26T03:55:05.951Z,100909.44
2023-01-26T03:57:54.667Z,100907.41
2023-01-26T04:00:43.386Z,100904.47
2023-01-26T04:03:49.684Z,100902.81
2023-01-26T04:06:57.551Z,100898.75
2023-01-26T04:09:47.555Z,100892.06
2023-01-26T04:12:39.134Z,100886.44
2023-01-26T04:15:45.350Z,100884.91
2023-01-26T04:18:51.507Z,100889.75
2023-01-26T04:21:40.304Z,100883.06
2023-01-26T04:24:28.979Z,100885.06
2023-01-26T04:27:18.955Z,100883.78
2023-01-26T04:30:09.338Z,100876.97
2023-01-26T04:32:59.338Z,100880.81
2023-01-26T04:35:48.150Z,100872.38
2023-01-26T04:38:36.891Z,100874.84
2023-01-26T04:41:25.698Z,100872.16
2023-01-26T04:44:16.833Z,100868.81
2023-01-26T04:47:05.508Z,100868.44
2023-01-26T04:49:54.125Z,100864.88
2023-01-26T04:52:42.732Z,100860.03
2023-01-26T04:55:31.363Z,100861.56
2023-01-26T04:58:20.081Z,100861.72
2023-01-26T05:01:10.688Z,100862.84
2023-01-26T05:04:01.232Z,100857.53
2023-01-26T05:06:49.808Z,100863.06
2023-01-26T05:09:38.417Z,100867.38
2023-01-26T05:12:37.309Z,100876.38
2023-01-26T05:15:25.971Z,100876.38
2023-01-26T05:18:16.255Z,100868.56
2023-01-26T05:21:05.047Z,100873.88
2023-01-26T05:23:53.754Z,100870.31
2023-01-26T05:26:42.350Z,100882.34
2023-01-26T05:29:30.959Z,100879.31
2023-01-26T05:32:19.994Z,100877.56
2023-01-26T05:35:10.720Z,100878.50
2023-01-26T05:37:59.310Z,100878.19
2023-01-26T05:40:47.978Z,100871.75
2023-01-26T05:43:36.644Z,100875.44
2023-01-26T05:46:25.247Z,100872.22
2023-01-26T05:49:13.956Z,100873.50
2023-01-26T05:52:03.853Z,100866.06
2023-01-26T05:54:52.543Z,100871.06
2023-01-26T05:57:41.480Z,100869.03
2023-01-26T06:00:30.077Z,100872.44
2023-01-26T06:03:18.806Z,100867.47
2023-01-26T06:06:07.948Z,100872.81
2023-01-26T06:08:58.078Z,100870.91
2023-01-26T06:11:46.723Z,100873.72
2023-01-26T06:14:35.362Z,100877.19
2023-01-26T06:17:23.990Z,100873.13
2023-01-26T06:20:14.749Z,100874.41
2023-01-26T06:23:03.487Z,100879.53
2023-01-26T06:25:53.484Z,100886.94
2023-01-26T06:28:42.190Z,100885.84
2023-01-26T06:31:30.850Z,100885.84
2023-01-26T06:34:19.966Z,100881.72
2023-01-26T06:37:09.029Z,100881.34
2023-01-26T06:39:57.622Z,100880.16
2023-01-26T06:42:51.135Z,100883.84
2023-01-26T06:45:39.750Z,100887.38
2023-01-26T06:48:29.304Z,100880.50
2023-01-26T06:51:54.778Z,100877.19
2023-01-26T06:54:43.473Z,100877.63
2023-01-26T06:57:32.054Z,100877.50
2023-01-26T07:00:23.393Z,100872.19
2023-01-26T07:03:13.116Z,100877.66
2023-01-26T07:06:01.835Z,100876.72
2023-01-26T07:08:50.505Z,100881.50
2023-01-26T07:11:39.290Z,100872.66
2023-01-26T07:14:27.902Z,100879.50
2023-01-26T07:17:17.899Z,100880.00
2023-01-26T07:20:07.755Z,100871.53
2023-01-26T07:22:56.421Z,100870.81
2023-01-26T07:25:45.469Z,100866.66
2023-01-26T07:28:35.538Z,100863.81
2023-01-26T07:31:24.359Z,100871.47
2023-01-26T07:34:14.644Z,100874.13
2023-01-26T07:37:03.289Z,100868.44
2023-01-26T07:39:51.855Z,100871.47
2023-01-26T07:42:41.000Z,100869.28
2023-01-26T07:45:29.576Z,100869.03
2023-01-26T07:48:18.595Z,100870.94
2023-01-26T07:51:11.016Z,100862.16
2023-01-26T07:53:59.949Z,100864.75
2023-01-26T07:56:48.671Z,100868.81
2023-01-26T07:59:37.406Z,100869.19
2023-01-26T08:02:25.980Z,100870.31
2023-01-26T08:05:14.571Z,100875.38
2023-01-26T08:08:04.668Z,100869.94
2023-01-26T08:10:53.408Z,100870.03
2023-01-26T08:13:42.065Z,100875.66
2023-01-26T08:16:31.024Z,100871.16
2023-01-26T08:19:19.980Z,100877.19
2023-01-26T08:22:08.633Z,100867.97
2023-01-26T08:24:58.814Z,100870.34
2023-01-26T08:27:47.384Z,100871.16
2023-01-26T08:30:36.701Z,100870.28
2023-01-26T08:33:28.471Z,100865.41
2023-01-26T08:36:17.346Z,100862.09
2023-01-26T08:39:05.928Z,100862.69
2023-01-26T08:41:55.980Z,100855.84
2023-01-26T08:44:44.711Z,100852.50
2023-01-26T08:47:33.296Z,100851.97
2023-01-26T08:50:21.928Z,100856.28
2023-01-26T08:53:10.695Z,100857.13
2023-01-26T08:55:59.471Z,100851.44
2023-01-26T08:58:49.606Z,100862.53
2023-01-26T09:01:38.546Z,100869.34
2023-01-26T09:04:28.194Z,100863.66
2023-01-26T09:07:16.852Z,100870.53
2023-01-26T09:10:06.506Z,100876.22
2023-01-26T09:12:57.349Z,100879.91
2023-01-26T09:15:47.312Z,100871.16
2023-01-26T09:18:36.338Z,100878.63
2023-01-26T09:21:25.050Z,100869.94
2023-01-26T09:24:14.049Z,100877.78
2023-01-26T09:27:02.628Z,100881.94
2023-01-26T09:29:52.221Z,100887.59
2023-01-26T09:32:42.346Z,100884.59
2023-01-26T09:35:32.193Z,100888.59
2023-01-26T09:38:20.830Z,100883.09
2023-01-26T09:41:17.279Z,100889.28
2023-01-26T09:44:07.641Z,100893.13
2023-01-26T09:47:04.691Z,100891.28
2023-01-26T09:50:00.765Z,100885.94
2023-01-26T09:52:52.630Z,100888.31
2023-01-26T09:55:42.233Z,100891.16
2023-01-26T09:58:36.751Z,100892.94
2023-01-26T10:01:30.309Z,100880.16
2023-01-26T10:04:29.732Z,100891.53
2023-01-26T10:07:19.941Z,100886.44
2023-01-26T10:10:09.180Z,100888.97
2023-01-26T10:12:58.259Z,100890.56
2023-01-26T10:15:49.779Z,100882.09
2023-01-26T10:18:45.404Z,100885.94
2023-01-26T10:21:36.860Z,100885.13
2023-01-26T10:24:26.973Z,100881.28
2023-01-26T10:27:15.594Z,100878.69
2023-01-26T10:30:04.357Z,100876.28
2023-01-26T10:32:54.016Z,100881.28
2023-01-26T10:35:42.662Z,100882.63
2023-01-26T10:38:42.538Z,100876.19
2023-01-26T10:41:32.515Z,100868.44
2023-01-26T10:44:26.594Z,100868.06
2023-01-26T10:47:16.811Z,100862.03
2023-01-26T10:50:17.450Z,100865.25
2023-01-26T10:53:07.001Z,100861.94
2023-01-26T10:56:01.748Z,100859.91
2023-01-26T10:58:54.364Z,100857.03
2023-01-26T11:01:54.054Z,100852.56
2023-01-26T11:04:43.246Z,100846.63
2023-01-26T11:07:36.034Z,100847.41
2023-01-26T11:10:28.008Z,100849.88
2023-01-26T11:13:20.089Z,100849.13
2023-01-26T11:16:16.570Z,100855.38
2023-01-26T11:19:09.381Z,100854.09
2023-01-26T11:22:01.001Z,100858.06
2023-01-26T11:24:53.886Z,100846.91
2023-01-26T11:27:48.485Z,100845.53
2023-01-26T11:31:06.237Z,100840.03
2023-01-26T11:34:02.831Z,100834.22
2023-01-26T11:36:56.611Z,100839.06
2023-01-26T11:39:53.675Z,100831.28
2023-01-26T11:42:49.024Z,100828.88
2023-01-26T11:45:41.267Z,100824.28
2023-01-26T11:48:36.002Z,100817.75
2023-01-26T11:51:35.957Z,100814.44
2023-01-26T11:54:42.626Z,100814.56
2023-01-26T11:57:37.928Z,100802.81
2023-01-26T12:00:31.148Z,100811.47
2023-01-26T12:03:26.062Z,100803.41
2023-01-26T12:06:20.114Z,100805.50
2023-01-26T12:09:19.022Z,100799.53
2023-01-26T12:12:12.028Z,100795.00
2023-01-26T12:15:08.273Z,100784.81
2023-01-26T12:18:00.912Z,100781.50
2023-01-26T12:20:53.129Z,100781.59
2023-01-26T12:23:48.598Z,100783.44
2023-01-26T12:26:44.777Z,100779.47
2023-01-26T12:29:40.020Z,100774.41
2023-01-26T12:32:29.054Z,100775.81
2023-01-26T12:35:21.400Z,100779.22
2023-01-26T12:38:18.211Z,100770.56
2023-01-26T12:41:12.714Z,100775.44
2023-01-26T12:44:12.899Z,100775.81
2023-01-26T12:47:06.475Z,100769.38
2023-01-26T12:49:59.621Z,100763.97
2023-01-26T12:52:52.267Z,100757.44
2023-01-26T12:55:44.727Z,100763.41
2023-01-26T12:58:35.566Z,100758.25
2023-01-26T13:01:27.083Z,100756.22
2023-01-26T13:04:17.595Z,100744.19
2023-01-26T13:07:30.527Z,100732.16
2023-01-26T13:10:44.848Z,100740.88
2023-01-26T13:13:34.658Z,100738.50
2023-01-26T13:16:34.959Z,100737.22
2023-01-26T13:19:52.909Z,100753.19
2023-01-26T13:22:42.378Z,100753.88
2023-01-26T13:25:32.959Z,100749.34
2023-01-26T13:28:29.427Z,100746.69
2023-01-26T13:31:35.206Z,100753.97
2023-01-26T13:34:27.736Z,100754.44
2023-01-26T13:37:20.798Z,100750.66
2023-01-26T13:40:19.600Z,100737.59
2023-01-26T13:43:25.899Z,100745.31
2023-01-26T13:46:20.479Z,100744.56
2023-01-26T13:49:25.444Z,100750.66
2023-01-26T13:52:18.528Z,100745.03
2023-01-26T13:55:14.990Z,100754.69
2023-01-26T13:58:13.380Z,100756.63
2023-01-26T14:01:03.800Z,100758.91
2023-01-26T14:04:04.480Z,100760.75
2023-01-26T14:06:57.385Z,100751.94
2023-01-26T14:09:47.530Z,100754.31
2023-01-26T14:12:38.193Z,100750.28
2023-01-26T14:15:28.772Z,100751.38
2023-01-26T14:18:23.263Z,100747.88
2023-01-26T14:21:22.447Z,100746.13
2023-01-26T14:24:12.748Z,100747.31
2023-01-26T14:27:01.707Z,100748.97
2023-01-26T14:29:50.376Z,100744.38
2023-01-26T14:32:39.035Z,100742.63
2023-01-26T14:35:28.665Z,100748.25
2023-01-26T14:38:19.901Z,100746.31
2023-01-26T14:41:12.317Z,100748.88
2023-01-26T14:44:01.869Z,100747.50
2023-01-26T14:46:57.274Z,100750.00
2023-01-26T14:49:49.040Z,100750.69
2023-01-26T14:52:39.209Z,100744.25
2023-01-26T14:55:29.467Z,100746.94
2023-01-26T14:58:23.208Z,100756.00
2023-01-26T15:01:12.023Z,100765.31
2023-01-26T15:04:04.376Z,100754.66
2023-01-26T15:06:53.051Z,100759.22
2023-01-26T15:09:41.839Z,100756.00
2023-01-26T15:12:35.759Z,100766.97
2023-01-26T15:15:29.577Z,100775.72
2023-01-26T15:18:20.592Z,100766.72
2023-01-26T15:21:14.534Z,100768.69
2023-01-26T15:24:03.353Z,100761.53
2023-01-26T15:26:52.174Z,100762.34
2023-01-26T15:29:40.917Z,100768.38
2023-01-26T15:32:33.247Z,100772.41
2023-01-26T15:35:25.965Z,100773.69
2023-01-26T15:38:15.164Z,100774.75
2023-01-26T15:41:03.749Z,100774.75
2023-01-26T15:43:52.319Z,100775.78
2023-01-26T15:46:40.966Z,100772.47
2023-01-26T15:49:31.057Z,100769.50
2023-01-26T15:52:21.297Z,100774.97
2023-01-26T15:55:20.819Z,100770.97
2023-01-26T15:58:09.526Z,100775.13
2023-01-26T16:00:58.236Z,100780.94
2023-01-26T16:03:46.793Z,100783.50
2023-01-26T16:06:36.786Z,100784.41
2023-01-26T16:09:25.418Z,100784.41
2023-01-26T16:12:30.496Z,100778.81
2023-01-26T16:15:28.836Z,100788.41
2023-01-26T16:18:17.537Z,100790.38
2023-01-26T16:21:16.986Z,100788.94
2023-01-26T16:24:07.848Z,100788.72
2023-01-26T16:26:56.584Z,100792.41
2023-01-26T16:29:45.255Z,100787.84
2023-01-26T16:32:33.953Z,100786.47
2023-01-26T16:35:24.645Z,100792.75
2023-01-26T16:38:15.859Z,100791.91
2023-01-26T16:41:06.040Z,100789.47
2023-01-26T16:43:56.338Z,100779.81
2023-01-26T16:46:45.643Z,100785.66
2023-01-26T16:49:34.359Z,100786.06
2023-01-26T16:52:23.065Z,100786.69
2023-01-26T16:55:13.856Z,100778.63
2023-01-26T16:58:06.757Z,100785.25
2023-01-26T17:00:55.947Z,100785.59
2023-01-26T17:03:44.527Z,100782.84
2023-01-26T17:06:33.196Z,100780.28
2023-01-26T17:09:23.746Z,100788.44
2023-01-26T17:12:12.744Z,100791.47
2023-01-26T17:15:02.760Z,100787.59
2023-01-26T17:17:51.498Z,100785.94
2023-01-26T17:20:41.424Z,100791.91
2023-01-26T17:23:31.429Z,100789.25
2023-01-26T17:26:23.042Z,100798.09
2023-01-26T17:29:13.393Z,100803.19
2023-01-26T17:32:03.654Z,100803.81
2023-01-26T17:34:52.452Z,100802.91
2023-01-26T17:37:41.218Z,100813.22
2023-01-26T17:40:29.819Z,100803.06
2023-01-26T17:43:21.163Z,100804.34
2023-01-26T17:46:12.517Z,100800.88
2023-01-26T17:49:02.505Z,100810.19
2023-01-26T17:51:51.127Z,100806.69
2023-01-26T17:54:39.883Z,100800.50
2023-01-26T17:57:29.887Z,100807.41
2023-01-26T18:00:21.907Z,100805.94
2023-01-26T18:03:12.054Z,100812.53
2023-01-26T18:06:02.076Z,100815.38
2023-01-26T18:08:50.739Z,100824.41
2023-01-26T18:11:39.435Z,100819.06
2023-01-26T18:14:28.146Z,100822.91
2023-01-26T18:17:16.882Z,100820.88
2023-01-26T18:20:06.000Z,100821.25
2023-01-26T18:22:56.059Z,100823.28
2023-01-26T18:25:45.361Z,100822.59
2023-01-26T18:28:33.982Z,100825.75
2023-01-26T18:31:24.327Z,100824.31
2023-01-26T18:34:13.829Z,100832.75
2023-01-26T18:37:03.643Z,100829.88
2023-01-26T18:39:54.757Z,100828.97
2023-01-26T18:42:43.420Z,100833.50
2023-01-26T18:45:32.004Z,100825.28
2023-01-26T18:48:20.810Z,100829.72
2023-01-26T18:51:10.124Z,100827.53
2023-01-26T18:53:59.216Z,100839.50
2023-01-26T18:56:49.219Z,100832.47
2023-01-26T18:59:37.876Z,100831.97
2023-01-26T19:02:26.615Z,100835.22
2023-01-26T19:05:15.741Z,100840.09
2023-01-26T19:08:10.188Z,100841.38
2023-01-26T19:10:58.972Z,100828.56
2023-01-26T19:13:49.027Z,100829.47
2023-01-26T19:16:37.965Z,100826.81
2023-01-26T19:19:26.853Z,100831.00
2023-01-26T19:22:15.591Z,100830.47
2023-01-26T19:25:04.301Z,100831.47
2023-01-26T19:27:53.140Z,100826.50
2023-01-26T19:30:43.521Z,100828.63
2023-01-26T19:33:32.146Z,100828.81
2023-01-26T19:36:21.434Z,100825.03
2023-01-26T19:39:10.918Z,100819.78
2023-01-26T19:41:59.558Z,100825.50
2023-01-26T19:44:48.277Z,100831.06
2023-01-26T19:47:38.991Z,100818.06
2023-01-26T19:50:35.405Z,100833.69
2023-01-26T19:53:24.003Z,100828.19
2023-01-26T19:56:13.783Z,100826.28
2023-01-26T19:59:03.875Z,100828.56
2023-01-26T20:01:52.452Z,100834.81
2023-01-26T20:04:42.752Z,100832.09
2023-01-26T20:07:31.461Z,100829.09
2023-01-26T20:10:20.342Z,100828.88
2023-01-26T20:13:09.008Z,100824.38
2023-01-26T20:15:58.305Z,100829.72
2023-01-26T20:18:46.940Z,100822.66
2023-01-26T20:21:46.548Z,100827.16
2023-01-26T20:24:35.497Z,100823.22
2023-01-26T20:27:24.344Z,100816.38
2023-01-26T20:30:14.776Z,100815.47
2023-01-26T20:33:03.566Z,100802.09
2023-01-26T20:35:52.168Z,100800.84
2023-01-26T20:38:42.261Z,100798.41
2023-01-26T20:41:33.436Z,100794.56
2023-01-26T20:44:22.074Z,100800.47
2023-01-26T20:47:10.688Z,100801.53
2023-01-26T20:49:59.485Z,100801.94
2023-01-26T20:52:48.243Z,100802.56
2023-01-26T20:55:38.289Z,100805.22
2023-01-26T20:58:26.977Z,100803.97
2023-01-26T21:01:17.495Z,100812.16
2023-01-26T21:04:07.319Z,100817.41
2023-01-26T21:06:55.964Z,100813.63
2023-01-26T21:09:44.554Z,100816.13
2023-01-26T21:12:37.168Z,100827.06
2023-01-26T21:15:25.825Z,100827.19
2023-01-26T21:18:14.426Z,100834.91
2023-01-26T21:21:04.992Z,100835.72
2023-01-26T21:23:53.695Z,100834.16
2023-01-26T21:26:42.360Z,100825.78
2023-01-26T21:29:32.530Z,100822.75
2023-01-26T21:32:21.368Z,100816.69
2023-01-26T21:35:10.779Z,100820.19
2023-01-26T21:38:00.121Z,100819.47
2023-01-26T21:40:48.748Z,100824.63
2023-01-26T21:43:37.350Z,100822.22
2023-01-26T21:46:27.658Z,100822.31
2023-01-26T21:49:17.123Z,100824.84
2023-01-26T21:52:23.631Z,100824.81
2023-01-26T21:55:12.323Z,100824.50
2023-01-26T21:58:18.727Z,100829.03
2023-01-26T22:01:07.895Z,100827.06
2023-01-26T22:03:59.723Z,100832.59
2023-01-26T22:06:48.691Z,100825.84
2023-01-26T22:09:38.818Z,100825.84
2023-01-26T22:12:27.534Z,100822.19
2023-01-26T22:15:16.245Z,100823.53
2023-01-26T22:20:55.442Z,100825.31
2023-01-26T22:23:44.308Z,100827.22
2023-01-26T22:26:32.988Z,100820.63
2023-01-26T22:29:21.915Z,100817.31
2023-01-26T22:32:10.903Z,100821.63
2023-01-26T22:34:59.590Z,100816.63
2023-01-26T22:37:49.655Z,100809.75
2023-01-26T22:40:39.180Z,100795.31
2023-01-26T22:43:28.126Z,100795.69
2023-01-26T22:46:17.411Z,100802.50
2023-01-26T22:49:06.341Z,100803.97
2023-01-26T22:51:54.952Z,100802.28
2023-01-26T22:54:44.962Z,100807.63
2023-01-26T22:57:33.631Z,100804.78
2023-01-26T23:00:22.390Z,100809.31
2023-01-26T23:03:11.016Z,100805.78
2023-01-26T23:06:01.057Z,100810.13
2023-01-26T23:08:49.675Z,100813.31
2023-01-26T23:11:40.424Z,100815.34
2023-01-26T23:14:29.235Z,100814.97
2023-01-26T23:17:17.901Z,100815.44
2023-01-26T23:20:07.820Z,100814.97
2023-01-26T23:22:56.389Z,100814.81
2023-01-26T23:25:51.555Z,100824.81
2023-01-26T23:28:42.860Z,100820.69
2023-01-26T23:31:31.925Z,100813.78
2023-01-26T23:34:20.998Z,100815.53
2023-01-26T23:37:09.530Z,100813.31
2023-01-26T23:39:58.114Z,100803.97
2023-01-26T23:43:00.623Z,100804.03
2023-01-26T23:45:53.898Z,100807.34
2023-01-26T23:48:42.610Z,100803.41
2023-01-26T23:51:31.199Z,100807.88
2023-01-26T23:54:19.800Z,100812.03
2023-01-26T23:57:08.369Z,100805.44
2023-01-26T23:59:57.024Z,100802.44
